createdAt,value
2019-03-03T00:01:39.340Z,83.70
2019-03-03T00:04:05.533Z,83.40
2019-03-03T00:06:32.815Z,83.80
2019-03-03T00:08:59.001Z,83.90
2019-03-03T00:11:25.165Z,84.20
2019-03-03T00:13:51.454Z,84.20
2019-03-03T00:16:17.713Z,85.30
2019-03-03T00:18:43.907Z,85.40
2019-03-03T00:21:11.964Z,85.20
2019-03-03T00:23:40.100Z,85.00
2019-03-03T00:26:06.366Z,85.30
2019-03-03T00:28:32.915Z,85.80
2019-03-03T00:30:59.103Z,86.00
2019-03-03T00:33:25.265Z,86.30
2019-03-03T00:35:51.452Z,86.40
2019-03-03T00:38:19.511Z,86.50
2019-03-03T00:41:05.948Z,86.40
2019-03-03T00:43:39.606Z,86.60
2019-03-03T00:46:19.576Z,86.40
2019-03-03T00:48:47.661Z,86.50
2019-03-03T00:51:30.890Z,87.20
2019-03-03T00:53:58.973Z,88.30
2019-03-03T00:56:30.732Z,89.20
2019-03-03T00:58:58.795Z,89.60
2019-03-03T01:01:29.804Z,89.60
2019-03-03T01:04:04.053Z,89.70
2019-03-03T01:06:48.765Z,89.70
2019-03-03T01:09:44.103Z,89.60
2019-03-03T01:12:24.437Z,89.60
2019-03-03T01:15:01.620Z,89.40
2019-03-03T01:17:46.233Z,89.60
2019-03-03T01:20:14.305Z,89.30
2019-03-03T01:22:54.193Z,90.00
2019-03-03T01:25:20.353Z,89.20
2019-03-03T01:27:46.534Z,88.70
2019-03-03T01:30:12.944Z,88.40
2019-03-03T01:32:39.141Z,88.10
2019-03-03T01:35:07.609Z,88.00
2019-03-03T01:37:33.821Z,87.80
2019-03-03T01:40:00.996Z,87.70
2019-03-03T01:42:27.257Z,87.40
2019-03-03T01:44:53.435Z,87.20
2019-03-03T01:47:19.612Z,87.70
2019-03-03T01:49:45.818Z,87.10
2019-03-03T01:52:12.069Z,87.00
2019-03-03T01:54:38.252Z,87.00
2019-03-03T01:57:04.431Z,87.20
2019-03-03T01:59:30.613Z,86.90
2019-03-03T02:01:56.773Z,87.00
2019-03-03T02:04:22.952Z,86.80
2019-03-03T02:06:50.415Z,86.50
2019-03-03T02:09:16.821Z,86.40
2019-03-03T02:11:43.116Z,86.40
2019-03-03T02:14:09.361Z,85.90
2019-03-03T02:16:35.513Z,85.80
2019-03-03T02:19:01.906Z,85.70
2019-03-03T02:21:28.062Z,85.90
2019-03-03T02:23:54.242Z,85.70
2019-03-03T02:26:20.396Z,86.00
2019-03-03T02:28:46.597Z,86.60
2019-03-03T02:31:12.952Z,86.10
2019-03-03T02:33:39.122Z,86.30
2019-03-03T02:36:05.293Z,86.30
2019-03-03T02:38:31.484Z,86.10
2019-03-03T02:40:57.973Z,85.90
2019-03-03T02:43:24.204Z,85.60
2019-03-03T02:45:50.364Z,85.90
2019-03-03T02:48:16.525Z,86.30
2019-03-03T02:50:42.802Z,86.10
2019-03-03T02:53:09.022Z,86.30
2019-03-03T02:55:35.349Z,86.10
2019-03-03T02:58:02.417Z,86.10
2019-03-03T03:00:28.613Z,86.20
2019-03-03T03:02:58.175Z,86.00
2019-03-03T03:05:27.606Z,85.90
2019-03-03T03:07:55.783Z,86.00
2019-03-03T03:10:39.153Z,86.10
2019-03-03T03:13:19.391Z,85.90
2019-03-03T03:15:49.469Z,86.40
2019-03-03T03:18:21.365Z,86.40
2019-03-03T03:20:49.523Z,86.30
2019-03-03T03:23:17.625Z,86.40
2019-03-03T03:25:45.717Z,86.60
2019-03-03T03:28:19.951Z,86.70
2019-03-03T03:30:53.824Z,86.60
2019-03-03T03:33:21.924Z,86.70
2019-03-03T03:35:56.055Z,86.60
2019-03-03T03:38:24.565Z,86.60
2019-03-03T03:40:52.651Z,86.60
2019-03-03T03:43:37.766Z,86.60
2019-03-03T03:46:21.026Z,86.60
2019-03-03T03:48:49.433Z,86.60
2019-03-03T03:51:29.388Z,86.60
2019-03-03T03:54:34.440Z,86.60
2019-03-03T03:57:02.961Z,86.90
2019-03-03T03:59:31.055Z,87.00
2019-03-03T04:02:15.518Z,86.90
2019-03-03T04:04:43.791Z,86.90
2019-03-03T04:07:14.655Z,86.70
2019-03-03T04:09:42.763Z,86.70
2019-03-03T04:12:10.846Z,86.60
2019-03-03T04:14:38.946Z,86.40
2019-03-03T04:17:07.125Z,86.50
2019-03-03T04:19:41.484Z,86.20
2019-03-03T04:22:25.873Z,86.20
2019-03-03T04:24:53.952Z,86.80
2019-03-03T04:27:22.032Z,86.30
2019-03-03T04:29:50.109Z,86.20
2019-03-03T04:32:20.955Z,86.20
2019-03-03T04:34:51.812Z,86.20
2019-03-03T04:37:19.872Z,86.00
2019-03-03T04:39:50.478Z,86.00
2019-03-03T04:42:24.427Z,86.40
2019-03-03T04:44:58.513Z,85.90
2019-03-03T04:47:43.199Z,86.00
2019-03-03T04:50:14.047Z,86.00
2019-03-03T04:52:47.797Z,86.00
2019-03-03T04:55:15.917Z,85.90
2019-03-03T04:58:01.402Z,85.70
2019-03-03T05:00:44.680Z,85.90
2019-03-03T05:03:27.585Z,86.00
2019-03-03T05:05:59.733Z,86.10
2019-03-03T05:08:30.624Z,86.10
2019-03-03T05:11:01.493Z,86.30
2019-03-03T05:13:29.577Z,86.10
2019-03-03T05:16:06.462Z,86.00
2019-03-03T05:18:34.533Z,85.80
2019-03-03T05:21:00.694Z,85.70
2019-03-03T05:23:26.996Z,85.30
2019-03-03T05:25:53.159Z,85.50
2019-03-03T05:28:19.376Z,85.60
2019-03-03T05:30:45.604Z,85.40
2019-03-03T05:33:11.793Z,85.70
2019-03-03T05:35:38.963Z,85.10
2019-03-03T05:38:05.134Z,85.30
2019-03-03T05:40:31.328Z,85.20
2019-03-03T05:42:57.515Z,85.00
2019-03-03T05:45:23.697Z,85.10
2019-03-03T05:47:49.958Z,85.20
2019-03-03T05:50:16.305Z,85.00
2019-03-03T05:52:42.808Z,84.80
2019-03-03T05:55:09.115Z,84.80
2019-03-03T05:57:35.300Z,84.90
2019-03-03T06:00:02.423Z,84.90
2019-03-03T06:02:30.900Z,85.00
2019-03-03T06:04:57.125Z,85.00
2019-03-03T06:07:23.340Z,84.70
2019-03-03T06:09:49.574Z,84.80
2019-03-03T06:12:15.753Z,84.60
2019-03-03T06:14:41.943Z,84.20
2019-03-03T06:17:08.171Z,83.70
2019-03-03T06:19:34.394Z,83.50
2019-03-03T06:22:00.952Z,83.60
2019-03-03T06:24:27.133Z,83.40
2019-03-03T06:26:53.292Z,83.50
2019-03-03T06:29:19.533Z,83.30
2019-03-03T06:31:45.722Z,82.60
2019-03-03T06:34:12.010Z,82.40
2019-03-03T06:36:38.184Z,82.60
2019-03-03T06:39:05.862Z,81.80
2019-03-03T06:41:32.998Z,81.80
2019-03-03T06:43:59.201Z,81.50
2019-03-03T06:46:25.590Z,81.00
2019-03-03T06:48:52.035Z,80.60
2019-03-03T06:51:18.200Z,80.00
2019-03-03T06:53:44.390Z,79.20
2019-03-03T06:56:10.600Z,79.50
2019-03-03T06:58:36.756Z,77.50
2019-03-03T07:01:02.942Z,77.40
2019-03-03T07:03:29.320Z,77.00
2019-03-03T07:05:55.700Z,76.30
2019-03-03T07:08:22.033Z,76.00
2019-03-03T07:10:48.444Z,75.90
2019-03-03T07:13:14.718Z,74.70
2019-03-03T07:15:40.888Z,73.90
2019-03-03T07:18:07.081Z,73.50
2019-03-03T07:20:33.286Z,72.80
2019-03-03T07:22:59.485Z,72.00
2019-03-03T07:25:25.912Z,72.30
2019-03-03T07:27:52.124Z,73.00
2019-03-03T07:30:18.322Z,71.40
2019-03-03T07:33:04.703Z,69.90
2019-03-03T07:35:30.908Z,69.00
2019-03-03T07:37:57.220Z,67.20
2019-03-03T07:40:23.401Z,66.10
2019-03-03T07:42:49.838Z,65.30
2019-03-03T07:45:16.128Z,65.00
2019-03-03T07:47:42.301Z,65.00
2019-03-03T07:50:08.603Z,65.20
2019-03-03T07:52:34.794Z,65.30
2019-03-03T07:55:00.964Z,63.40
2019-03-03T07:57:27.135Z,60.30
2019-03-03T07:59:53.316Z,60.20
2019-03-03T08:02:19.496Z,61.20
2019-03-03T08:04:45.681Z,61.90
2019-03-03T08:07:11.871Z,60.00
2019-03-03T08:09:38.078Z,60.60
2019-03-03T08:12:04.258Z,59.90
2019-03-03T08:14:32.462Z,60.00
2019-03-03T08:16:58.926Z,59.00
2019-03-03T08:19:25.255Z,58.80
2019-03-03T08:21:51.761Z,58.20
2019-03-03T08:24:17.981Z,58.40
2019-03-03T08:26:44.177Z,58.00
2019-03-03T08:29:10.405Z,55.00
2019-03-03T08:31:36.591Z,52.10
2019-03-03T08:34:02.757Z,49.40
2019-03-03T08:36:29.084Z,46.10
2019-03-03T08:39:08.327Z,45.20
2019-03-03T08:41:36.525Z,46.80
2019-03-03T08:44:04.821Z,45.90
2019-03-03T08:46:32.908Z,46.70
2019-03-03T08:49:03.765Z,46.20
2019-03-03T08:51:37.431Z,45.50
2019-03-03T08:54:20.352Z,44.30
2019-03-03T08:56:51.208Z,42.00
2019-03-03T08:59:36.252Z,42.10
2019-03-03T09:02:04.550Z,42.10
2019-03-03T09:04:49.556Z,42.40
2019-03-03T09:07:20.424Z,43.60
2019-03-03T09:09:57.391Z,44.10
2019-03-03T09:12:34.700Z,45.70
2019-03-03T09:15:19.559Z,45.80
2019-03-03T09:17:47.624Z,47.20
2019-03-03T09:20:24.688Z,47.10
2019-03-03T09:22:52.756Z,47.20
2019-03-03T09:25:35.678Z,47.40
2019-03-03T09:28:09.604Z,41.80
2019-03-03T09:30:54.683Z,41.30
2019-03-03T09:33:39.570Z,39.20
2019-03-03T09:36:24.387Z,36.70
2019-03-03T09:38:58.497Z,35.90
2019-03-03T09:41:29.613Z,35.80
2019-03-03T09:43:57.709Z,35.70
2019-03-03T09:46:31.493Z,34.30
2019-03-03T09:48:59.569Z,34.60
2019-03-03T09:51:35.199Z,34.20
2019-03-03T09:54:21.444Z,33.30
2019-03-03T09:57:01.417Z,33.20
2019-03-03T09:59:35.568Z,33.80
2019-03-03T10:02:20.459Z,33.80
2019-03-03T10:04:48.559Z,32.60
2019-03-03T10:07:28.982Z,31.90
2019-03-03T10:10:05.939Z,31.20
2019-03-03T10:12:34.039Z,32.30
2019-03-03T10:15:07.789Z,31.10
2019-03-03T10:17:36.205Z,33.10
2019-03-03T10:20:16.128Z,33.70
2019-03-03T10:22:45.493Z,34.20
2019-03-03T10:25:31.929Z,30.50
2019-03-03T10:28:02.547Z,29.60
2019-03-03T10:30:31.711Z,30.70
2019-03-03T10:32:59.813Z,29.30
2019-03-03T10:35:44.815Z,29.40
2019-03-03T10:38:18.930Z,29.70
2019-03-03T10:40:53.022Z,30.00
2019-03-03T10:43:27.186Z,31.20
2019-03-03T10:46:11.920Z,31.50
2019-03-03T10:48:50.430Z,31.90
2019-03-03T10:51:21.573Z,30.00
2019-03-03T10:53:49.668Z,30.00
2019-03-03T10:56:23.808Z,28.90
2019-03-03T10:58:53.835Z,28.90
2019-03-03T11:01:21.942Z,28.60
2019-03-03T11:03:53.208Z,29.60
2019-03-03T11:06:36.747Z,30.00
2019-03-03T11:09:15.957Z,29.50
2019-03-03T11:11:46.542Z,30.70
2019-03-03T11:14:17.193Z,31.00
2019-03-03T11:16:51.601Z,31.40
2019-03-03T11:19:34.804Z,31.30
2019-03-03T11:22:05.685Z,31.30
2019-03-03T11:24:33.953Z,28.90
2019-03-03T11:27:18.950Z,30.50
2019-03-03T11:29:59.589Z,29.70
2019-03-03T11:32:36.520Z,29.40
2019-03-03T11:35:21.716Z,30.30
2019-03-03T11:38:02.308Z,31.30
2019-03-03T11:40:39.690Z,32.00
2019-03-03T11:43:14.162Z,31.30
2019-03-03T11:45:42.538Z,33.90
2019-03-03T11:48:27.126Z,35.90
2019-03-03T11:50:55.341Z,35.90
2019-03-03T11:53:33.416Z,37.00
2019-03-03T11:56:10.684Z,35.70
2019-03-03T11:58:48.181Z,34.60
2019-03-03T12:01:40.426Z,35.30
2019-03-03T12:04:24.093Z,36.40
2019-03-03T12:06:54.987Z,36.90
2019-03-03T12:09:23.218Z,37.80
2019-03-03T12:11:54.067Z,38.80
2019-03-03T12:14:38.651Z,39.40
2019-03-03T12:17:06.940Z,42.00
2019-03-03T12:19:51.961Z,41.90
2019-03-03T12:22:22.826Z,43.20
2019-03-03T12:24:59.849Z,42.70
2019-03-03T12:27:44.893Z,43.60
2019-03-03T12:30:12.972Z,43.00
2019-03-03T12:32:44.100Z,42.00
2019-03-03T12:35:18.275Z,43.00
2019-03-03T12:37:47.556Z,44.40
2019-03-03T12:40:21.629Z,43.20
2019-03-03T12:42:49.840Z,43.00
2019-03-03T12:45:17.940Z,44.70
2019-03-03T12:47:46.833Z,43.70
2019-03-03T12:50:32.163Z,44.00
2019-03-03T12:53:03.095Z,44.20
2019-03-03T12:55:31.166Z,44.80
2019-03-03T12:58:01.814Z,45.90
2019-03-03T13:00:32.388Z,46.00
2019-03-03T13:03:17.408Z,43.90
2019-03-03T13:06:02.145Z,44.10
2019-03-03T13:08:33.249Z,43.80
2019-03-03T13:11:01.399Z,42.20
2019-03-03T13:13:44.532Z,41.70
2019-03-03T13:16:30.824Z,42.80
2019-03-03T13:18:58.907Z,44.40
2019-03-03T13:21:49.025Z,44.50
2019-03-03T13:24:26.488Z,44.40
2019-03-03T13:27:06.693Z,45.60
2019-03-03T13:29:40.520Z,45.10
2019-03-03T13:32:25.620Z,45.00
2019-03-03T13:34:54.010Z,45.50
2019-03-03T13:37:31.189Z,45.30
2019-03-03T13:40:08.408Z,45.90
2019-03-03T13:42:54.710Z,45.30
2019-03-03T13:45:20.878Z,45.30
2019-03-03T13:47:47.101Z,44.90
2019-03-03T13:50:14.458Z,45.90
2019-03-03T13:52:40.664Z,43.90
2019-03-03T13:55:09.743Z,45.00
2019-03-03T13:57:37.157Z,45.20
2019-03-03T14:00:07.124Z,45.30
2019-03-03T14:02:33.712Z,45.00
2019-03-03T14:04:59.915Z,44.90
2019-03-03T14:07:26.109Z,44.60
2019-03-03T14:09:52.273Z,44.90
2019-03-03T14:12:18.445Z,44.70
2019-03-03T14:14:44.620Z,44.90
2019-03-03T14:17:10.840Z,45.50
2019-03-03T14:19:37.076Z,45.90
2019-03-03T14:22:03.324Z,46.30
2019-03-03T14:24:29.694Z,46.60
2019-03-03T14:26:56.052Z,46.20
2019-03-03T14:29:37.277Z,46.30
2019-03-03T14:32:08.165Z,46.70
2019-03-03T14:34:34.358Z,47.30
2019-03-03T14:37:00.537Z,47.60
2019-03-03T14:39:26.841Z,47.60
2019-03-03T14:41:53.033Z,46.90
2019-03-03T14:44:19.217Z,46.50
2019-03-03T14:46:45.393Z,46.70
2019-03-03T14:49:11.581Z,47.40
2019-03-03T14:51:37.790Z,46.60
2019-03-03T14:54:04.344Z,46.10
2019-03-03T14:56:30.544Z,46.00
2019-03-03T14:58:56.942Z,45.70
2019-03-03T15:01:23.464Z,47.50
2019-03-03T15:03:49.680Z,46.90
2019-03-03T15:06:24.166Z,46.40
2019-03-03T15:08:44.961Z,45.90
2019-03-03T15:11:12.285Z,46.10
2019-03-03T15:13:38.624Z,45.40
2019-03-03T15:16:04.814Z,46.60
2019-03-03T15:18:31.020Z,45.60
2019-03-03T15:20:57.196Z,45.60
2019-03-03T15:23:23.350Z,44.80
2019-03-03T15:25:49.579Z,45.40
2019-03-03T15:28:15.840Z,45.70
2019-03-03T15:30:42.035Z,45.60
2019-03-03T15:33:08.210Z,45.00
2019-03-03T15:35:34.384Z,45.30
2019-03-03T15:38:00.548Z,44.30
2019-03-03T15:40:27.523Z,43.60
2019-03-03T15:42:53.943Z,43.60
2019-03-03T15:45:24.861Z,42.90
2019-03-03T15:47:51.281Z,43.00
2019-03-03T15:50:19.672Z,42.90
2019-03-03T15:52:46.149Z,43.90
2019-03-03T15:55:23.100Z,43.40
2019-03-03T15:57:49.261Z,43.50
2019-03-03T16:00:17.840Z,43.20
2019-03-03T16:02:44.033Z,42.90
2019-03-03T16:05:10.725Z,44.00
2019-03-03T16:07:37.708Z,44.00
2019-03-03T16:10:07.693Z,44.10
2019-03-03T16:12:33.873Z,44.30
2019-03-03T16:15:00.166Z,44.50
2019-03-03T16:17:26.538Z,44.50
2019-03-03T16:19:52.737Z,44.60
2019-03-03T16:22:18.902Z,45.40
2019-03-03T16:24:45.087Z,44.70
2019-03-03T16:27:11.251Z,45.10
2019-03-03T16:29:37.469Z,45.20
2019-03-03T16:32:03.706Z,45.60
2019-03-03T16:34:29.874Z,46.10
2019-03-03T16:36:56.084Z,45.70
2019-03-03T16:39:22.292Z,45.50
2019-03-03T16:41:48.489Z,46.10
2019-03-03T16:44:15.676Z,47.30
2019-03-03T16:46:41.919Z,47.40
2019-03-03T16:49:08.188Z,48.10
2019-03-03T16:51:34.385Z,48.20
2019-03-03T16:54:00.547Z,48.10
2019-03-03T16:56:26.820Z,48.60
2019-03-03T16:58:53.042Z,49.40
2019-03-03T17:01:19.239Z,49.70
2019-03-03T17:03:45.760Z,49.50
2019-03-03T17:06:11.938Z,49.60
2019-03-03T17:08:38.114Z,49.90
2019-03-03T17:11:04.317Z,49.90
2019-03-03T17:13:30.486Z,50.10
2019-03-03T17:15:58.729Z,50.00
2019-03-03T17:18:24.804Z,50.60
2019-03-03T17:20:50.974Z,50.40
2019-03-03T17:23:17.301Z,51.10
2019-03-03T17:25:43.509Z,51.00
2019-03-03T17:28:10.747Z,51.10
2019-03-03T17:30:36.924Z,51.90
2019-03-03T17:33:03.096Z,51.30
2019-03-03T17:35:29.270Z,51.30
2019-03-03T17:37:56.664Z,51.50
2019-03-03T17:40:24.477Z,51.50
2019-03-03T17:42:50.759Z,51.40
2019-03-03T17:45:18.660Z,51.70
2019-03-03T17:47:45.096Z,51.60
2019-03-03T17:50:20.216Z,52.20
2019-03-03T17:52:46.406Z,51.60
2019-03-03T17:55:14.183Z,51.40
2019-03-03T17:57:44.879Z,51.40
2019-03-03T18:00:17.559Z,51.40
2019-03-03T18:02:44.005Z,51.70
2019-03-03T18:05:10.268Z,51.70
2019-03-03T18:07:36.496Z,51.50
2019-03-03T18:10:05.609Z,51.50
2019-03-03T18:12:32.100Z,51.90
2019-03-03T18:15:00.340Z,51.70
2019-03-03T18:17:26.637Z,51.90
2019-03-03T18:19:52.961Z,52.30
2019-03-03T18:22:19.213Z,52.50
2019-03-03T18:24:45.409Z,52.90
2019-03-03T18:27:11.587Z,53.30
2019-03-03T18:29:37.764Z,53.30
2019-03-03T18:32:04.321Z,53.00
2019-03-03T18:34:30.585Z,54.00
2019-03-03T18:36:56.905Z,53.10
2019-03-03T18:39:23.109Z,53.80
2019-03-03T18:41:49.406Z,53.70
2019-03-03T18:44:15.874Z,53.60
2019-03-03T18:46:42.036Z,53.30
2019-03-03T18:49:08.517Z,53.40
2019-03-03T18:51:34.825Z,53.10
2019-03-03T18:54:01.012Z,53.20
2019-03-03T18:56:27.244Z,53.70
2019-03-03T18:58:53.581Z,54.30
2019-03-03T19:01:19.833Z,54.20
2019-03-03T19:03:46.080Z,54.60
2019-03-03T19:06:12.277Z,54.00
2019-03-03T19:08:38.499Z,53.70
2019-03-03T19:11:04.657Z,53.30
2019-03-03T19:13:30.865Z,53.30
2019-03-03T19:15:57.153Z,54.20
2019-03-03T19:18:23.360Z,54.60
2019-03-03T19:20:49.608Z,54.80
2019-03-03T19:23:15.797Z,55.40
2019-03-03T19:25:41.962Z,55.30
2019-03-03T19:28:08.168Z,55.50
2019-03-03T19:30:34.744Z,56.00
2019-03-03T19:33:25.631Z,56.40
2019-03-03T19:35:51.888Z,56.80
2019-03-03T19:38:18.376Z,57.30
2019-03-03T19:40:44.595Z,57.60
2019-03-03T19:43:10.996Z,58.60
2019-03-03T19:45:39.887Z,58.40
2019-03-03T19:48:06.519Z,58.20
2019-03-03T19:50:34.108Z,58.10
2019-03-03T19:53:00.288Z,58.80
2019-03-03T19:55:26.713Z,58.60
2019-03-03T19:57:52.890Z,58.30
2019-03-03T20:00:35.352Z,58.50
2019-03-03T20:02:59.852Z,58.80
2019-03-03T20:05:26.066Z,59.00
2019-03-03T20:07:52.267Z,59.30
2019-03-03T20:10:18.556Z,59.30
2019-03-03T20:12:44.736Z,59.70
2019-03-03T20:15:11.148Z,60.40
2019-03-03T20:17:39.440Z,60.70
2019-03-03T20:20:09.222Z,61.10
2019-03-03T20:22:37.533Z,61.60
2019-03-03T20:25:05.550Z,62.30
2019-03-03T20:27:33.229Z,63.00
2019-03-03T20:30:00.443Z,63.50
2019-03-03T20:32:26.756Z,63.90
2019-03-03T20:34:53.124Z,64.70
2019-03-03T20:37:19.338Z,63.60
2019-03-03T20:39:45.548Z,63.80
2019-03-03T20:42:13.620Z,64.30
2019-03-03T20:44:40.188Z,64.40
2019-03-03T20:47:06.525Z,65.20
2019-03-03T20:49:32.713Z,65.40
2019-03-03T20:51:58.902Z,65.30
2019-03-03T20:54:25.407Z,64.20
2019-03-03T20:56:51.584Z,63.20
2019-03-03T20:59:17.784Z,61.90
2019-03-03T21:01:43.952Z,61.40
2019-03-03T21:04:11.260Z,60.90
2019-03-03T21:06:37.619Z,60.10
2019-03-03T21:09:04.580Z,59.50
2019-03-03T21:11:32.658Z,59.30
2019-03-03T21:13:58.851Z,58.60
2019-03-03T21:16:25.041Z,58.80
2019-03-03T21:18:51.243Z,58.40
2019-03-03T21:21:17.420Z,58.10
2019-03-03T21:23:43.617Z,57.60
2019-03-03T21:26:09.794Z,57.80
2019-03-03T21:28:36.012Z,57.80
2019-03-03T21:31:03.394Z,57.70
2019-03-03T21:33:29.619Z,57.70
2019-03-03T21:35:55.805Z,57.80
2019-03-03T21:38:22.008Z,57.50
2019-03-03T21:40:48.209Z,57.60
2019-03-03T21:43:14.371Z,57.50
2019-03-03T21:45:40.564Z,57.60
2019-03-03T21:48:06.765Z,58.20
2019-03-03T21:50:32.932Z,57.70
2019-03-03T21:52:59.104Z,57.60
2019-03-03T21:55:25.600Z,57.80
2019-03-03T21:57:51.765Z,57.40
2019-03-03T22:00:29.946Z,57.40
2019-03-03T22:02:56.309Z,57.70
2019-03-03T22:05:24.534Z,57.40
2019-03-03T22:07:50.800Z,57.60
2019-03-03T22:10:17.208Z,57.70
2019-03-03T22:12:43.400Z,58.00
2019-03-03T22:15:31.385Z,58.10
2019-03-03T22:17:57.588Z,59.10
2019-03-03T22:20:23.753Z,58.80
2019-03-03T22:22:49.944Z,59.20
2019-03-03T22:25:16.100Z,59.10
2019-03-03T22:27:42.320Z,58.80
2019-03-03T22:30:15.900Z,59.00
2019-03-03T22:32:41.947Z,59.00
2019-03-03T22:35:09.421Z,59.30
2019-03-03T22:37:35.584Z,59.00
2019-03-03T22:40:02.853Z,59.10
2019-03-03T22:42:30.024Z,59.00
2019-03-03T22:44:56.199Z,59.00
2019-03-03T22:47:22.401Z,59.00
2019-03-03T22:49:48.563Z,59.00
2019-03-03T22:52:14.747Z,59.00
2019-03-03T22:54:41.243Z,59.00
2019-03-03T22:57:07.490Z,58.90
2019-03-03T22:59:33.709Z,59.10
2019-03-03T23:01:59.908Z,58.80
2019-03-03T23:04:51.236Z,58.70
2019-03-03T23:07:22.326Z,59.10
2019-03-03T23:10:15.219Z,59.20
2019-03-03T23:12:48.036Z,58.90
2019-03-03T23:15:36.775Z,58.80
2019-03-03T23:18:26.720Z,58.20
2019-03-03T23:20:59.499Z,58.20
2019-03-03T23:23:29.498Z,58.40
2019-03-03T23:25:55.681Z,58.50
2019-03-03T23:28:22.045Z,58.30
2019-03-03T23:30:48.932Z,58.30
2019-03-03T23:33:16.304Z,57.80
2019-03-03T23:35:42.484Z,58.10
2019-03-03T23:38:08.644Z,57.80
2019-03-03T23:40:34.854Z,57.50
2019-03-03T23:43:01.021Z,57.50
2019-03-03T23:45:27.360Z,57.50
2019-03-03T23:47:53.520Z,56.90
2019-03-03T23:50:19.722Z,57.00
2019-03-03T23:52:45.901Z,56.90
2019-03-03T23:55:12.324Z,56.30
2019-03-03T23:57:38.500Z,56.40
